sensor_id;sensor_type;location;lat;lon;timestamp;pressure;altitude;pressure_sealevel;temperature;humidity
4398;BME280;2213;49.720;7.296;2022-07-23T00:02:08;98164.69;;;22.53;100.00
4398;BME280;2213;49.720;7.296;2022-07-23T00:04:38;98182.53;;;22.47;100.00
4398;BME280;2213;49.720;7.296;2022-07-23T00:07:07;98182.53;;;22.47;100.00
4398;BME280;2213;49.720;7.296;2022-07-23T00:09:38;98165.50;;;22.48;100.00
4398;BME280;2213;49.720;7.296;2022-07-23T00:12:08;98164.13;;;22.46;100.00
4398;BME280;2213;49.720;7.296;2022-07-23T00:14:37;98170.25;;;22.46;100.00
4398;BME280;2213;49.720;7.296;2022-07-23T00:17:08;98184.94;;;22.44;100.00
4398;BME280;2213;49.720;7.296;2022-07-23T00:19:38;98179.34;;;22.45;100.00
4398;BME280;2213;49.720;7.296;2022-07-23T00:22:08;98167.31;;;22.43;100.00
4398;BME280;2213;49.720;7.296;2022-07-23T00:24:39;98162.25;;;22.41;100.00
4398;BME280;2213;49.720;7.296;2022-07-23T00:27:08;98153.19;;;22.42;100.00
4398;BME280;2213;49.720;7.296;2022-07-23T00:29:37;98137.44;;;22.36;100.00
4398;BME280;2213;49.720;7.296;2022-07-23T00:32:07;98126.50;;;22.32;100.00
4398;BME280;2213;49.720;7.296;2022-07-23T00:34:38;98113.69;;;22.29;100.00
4398;BME280;2213;49.720;7.296;2022-07-23T00:37:08;98112.06;;;22.23;100.00
4398;BME280;2213;49.720;7.296;2022-07-23T00:39:39;98107.28;;;22.20;100.00
4398;BME280;2213;49.720;7.296;2022-07-23T00:42:09;98113.38;;;22.16;100.00
4398;BME280;2213;49.720;7.296;2022-07-23T00:44:39;98122.69;;;22.13;100.00
4398;BME280;2213;49.720;7.296;2022-07-23T00:47:13;98133.59;;;22.12;100.00
4398;BME280;2213;49.720;7.296;2022-07-23T00:49:45;98138.63;;;22.03;100.00
4398;BME280;2213;49.720;7.296;2022-07-23T00:52:14;98139.97;;;22.05;100.00
4398;BME280;2213;49.720;7.296;2022-07-23T00:54:46;98122.66;;;22.03;100.00
4398;BME280;2213;49.720;7.296;2022-07-23T00:57:15;98120.22;;;22.01;100.00
4398;BME280;2213;49.720;7.296;2022-07-23T00:59:45;98132.72;;;21.96;100.00
4398;BME280;2213;49.720;7.296;2022-07-23T01:02:15;98148.13;;;21.94;100.00
4398;BME280;2213;49.720;7.296;2022-07-23T01:04:44;98174.72;;;21.89;100.00
4398;BME280;2213;49.720;7.296;2022-07-23T01:07:14;98178.16;;;21.84;100.00
4398;BME280;2213;49.720;7.296;2022-07-23T01:09:46;98184.75;;;21.77;100.00
4398;BME280;2213;49.720;7.296;2022-07-23T01:12:17;98175.97;;;21.76;100.00
4398;BME280;2213;49.720;7.296;2022-07-23T01:14:54;98158.34;;;21.70;100.00
4398;BME280;2213;49.720;7.296;2022-07-23T01:17:25;98163.13;;;21.68;100.00
4398;BME280;2213;49.720;7.296;2022-07-23T01:19:55;98150.88;;;21.67;100.00
4398;BME280;2213;49.720;7.296;2022-07-23T01:22:29;98140.22;;;21.67;100.00
4398;BME280;2213;49.720;7.296;2022-07-23T01:24:59;98131.69;;;21.65;100.00
4398;BME280;2213;49.720;7.296;2022-07-23T01:27:30;98125.06;;;21.68;100.00
4398;BME280;2213;49.720;7.296;2022-07-23T01:30:01;98113.31;;;21.64;100.00
4398;BME280;2213;49.720;7.296;2022-07-23T01:32:31;98118.63;;;21.64;100.00
4398;BME280;2213;49.720;7.296;2022-07-23T01:35:01;98144.72;;;21.62;100.00
4398;BME280;2213;49.720;7.296;2022-07-23T01:37:36;98145.72;;;21.55;100.00
4398;BME280;2213;49.720;7.296;2022-07-23T01:40:07;98140.38;;;21.50;100.00
4398;BME280;2213;49.720;7.296;2022-07-23T01:42:37;98143.50;;;21.42;100.00
4398;BME280;2213;49.720;7.296;2022-07-23T01:45:10;98150.94;;;21.40;100.00
4398;BME280;2213;49.720;7.296;2022-07-23T01:47:40;98144.56;;;21.41;100.00
4398;BME280;2213;49.720;7.296;2022-07-23T01:50:12;98145.56;;;21.35;100.00
4398;BME280;2213;49.720;7.296;2022-07-23T01:52:44;98143.84;;;21.19;100.00
4398;BME280;2213;49.720;7.296;2022-07-23T01:55:16;98136.53;;;21.09;100.00
4398;BME280;2213;49.720;7.296;2022-07-23T01:57:46;98132.84;;;21.11;100.00
4398;BME280;2213;49.720;7.296;2022-07-23T02:00:16;98121.09;;;21.06;100.00
4398;BME280;2213;49.720;7.296;2022-07-23T02:02:48;98099.53;;;21.08;100.00
4398;BME280;2213;49.720;7.296;2022-07-23T02:05:18;98082.31;;;21.11;100.00
4398;BME280;2213;49.720;7.296;2022-07-23T02:07:49;98073.56;;;21.15;100.00
4398;BME280;2213;49.720;7.296;2022-07-23T02:10:20;98066.91;;;21.13;100.00
4398;BME280;2213;49.720;7.296;2022-07-23T02:12:50;98069.56;;;21.13;100.00
4398;BME280;2213;49.720;7.296;2022-07-23T02:15:20;98074.63;;;21.14;100.00
4398;BME280;2213;49.720;7.296;2022-07-23T02:17:51;98094.22;;;21.08;100.00
4398;BME280;2213;49.720;7.296;2022-07-23T02:20:21;98105.06;;;21.01;100.00
4398;BME280;2213;49.720;7.296;2022-07-23T02:22:52;98130.25;;;20.94;100.00
4398;BME280;2213;49.720;7.296;2022-07-23T02:25:21;98135.53;;;20.89;100.00
4398;BME280;2213;49.720;7.296;2022-07-23T02:27:51;98145.31;;;20.83;100.00
4398;BME280;2213;49.720;7.296;2022-07-23T02:30:22;98135.47;;;20.84;100.00
4398;BME280;2213;49.720;7.296;2022-07-23T02:32:52;98136.53;;;20.83;100.00
4398;BME280;2213;49.720;7.296;2022-07-23T02:35:23;98122.91;;;20.79;100.00
4398;BME280;2213;49.720;7.296;2022-07-23T02:37:54;98116.88;;;20.84;100.00
4398;BME280;2213;49.720;7.296;2022-07-23T02:40:24;98107.34;;;20.88;100.00
4398;BME280;2213;49.720;7.296;2022-07-23T02:42:54;98099.91;;;20.90;100.00
4398;BME280;2213;49.720;7.296;2022-07-23T02:45:24;98090.88;;;20.91;100.00
4398;BME280;2213;49.720;7.296;2022-07-23T02:47:54;98067.25;;;20.94;100.00
4398;BME280;2213;49.720;7.296;2022-07-23T02:50:25;98085.31;;;20.92;100.00
4398;BME280;2213;49.720;7.296;2022-07-23T02:52:56;98087.41;;;20.90;100.00
4398;BME280;2213;49.720;7.296;2022-07-23T02:55:26;98095.16;;;20.92;100.00
4398;BME280;2213;49.720;7.296;2022-07-23T02:57:56;98114.31;;;20.94;100.00
4398;BME280;2213;49.720;7.296;2022-07-23T03:00:27;98119.59;;;20.89;100.00
4398;BME280;2213;49.720;7.296;2022-07-23T03:02:57;98115.31;;;20.88;100.00
4398;BME280;2213;49.720;7.296;2022-07-23T03:05:26;98114.00;;;20.90;100.00
4398;BME280;2213;49.720;7.296;2022-07-23T03:07:58;98110.31;;;20.91;100.00
4398;BME280;2213;49.720;7.296;2022-07-23T03:10:28;98114.00;;;20.90;100.00
4398;BME280;2213;49.720;7.296;2022-07-23T03:12:58;98110.00;;;20.88;100.00
4398;BME280;2213;49.720;7.296;2022-07-23T03:15:29;98114.72;;;20.81;100.00
4398;BME280;2213;49.720;7.296;2022-07-23T03:18:00;98127.69;;;20.77;100.00
4398;BME280;2213;49.720;7.296;2022-07-23T03:20:30;98129.31;;;20.78;100.00
4398;BME280;2213;49.720;7.296;2022-07-23T03:23:02;98137.28;;;20.78;100.00
4398;BME280;2213;49.720;7.296;2022-07-23T03:25:32;98139.13;;;20.78;100.00
4398;BME280;2213;49.720;7.296;2022-07-23T03:28:02;98140.19;;;20.77;100.00
4398;BME280;2213;49.720;7.296;2022-07-23T03:30:32;98135.38;;;20.74;100.00
4398;BME280;2213;49.720;7.296;2022-07-23T03:33:04;98133.75;;;20.73;100.00
4398;BME280;2213;49.720;7.296;2022-07-23T03:35:34;98139.84;;;20.68;100.00
4398;BME280;2213;49.720;7.296;2022-07-23T03:38:07;98144.59;;;20.66;100.00
4398;BME280;2213;49.720;7.296;2022-07-23T03:40:35;98147.50;;;20.65;100.00
4398;BME280;2213;49.720;7.296;2022-07-23T03:43:05;98145.91;;;20.64;100.00
4398;BME280;2213;49.720;7.296;2022-07-23T03:45:35;98141.09;;;20.61;100.00
4398;BME280;2213;49.720;7.296;2022-07-23T03:48:05;98147.19;;;20.61;100.00
4398;BME280;2213;49.720;7.296;2022-07-23T03:50:35;98139.22;;;20.61;100.00
4398;BME280;2213;49.720;7.296;2022-07-23T03:53:07;98139.97;;;20.56;100.00
4398;BME280;2213;49.720;7.296;2022-07-23T03:55:36;98148.97;;;20.55;100.00
4398;BME280;2213;49.720;7.296;2022-07-23T03:58:19;98142.09;;;20.54;100.00
4398;BME280;2213;49.720;7.296;2022-07-23T04:00:49;98150.59;;;20.56;100.00
4398;BME280;2213;49.720;7.296;2022-07-23T04:03:19;98155.09;;;20.56;100.00
4398;BME280;2213;49.720;7.296;2022-07-23T04:05:50;98139.66;;;20.53;100.00
4398;BME280;2213;49.720;7.296;2022-07-23T04:08:22;98144.97;;;20.53;100.00
4398;BME280;2213;49.720;7.296;2022-07-23T04:10:51;98146.09;;;20.57;100.00
4398;BME280;2213;49.720;7.296;2022-07-23T04:13:21;98152.44;;;20.56;100.00
4398;BME280;2213;49.720;7.296;2022-07-23T04:15:51;98163.81;;;20.51;100.00
4398;BME280;2213;49.720;7.296;2022-07-23T04:18:21;98161.09;;;20.46;100.00
4398;BME280;2213;49.720;7.296;2022-07-23T04:20:51;98167.47;;;20.45;100.00
4398;BME280;2213;49.720;7.296;2022-07-23T04:23:23;98169.00;;;20.41;100.00
4398;BME280;2213;49.720;7.296;2022-07-23T04:25:53;98170.06;;;20.40;100.00
4398;BME280;2213;49.720;7.296;2022-07-23T04:28:25;98173.22;;;20.37;100.00
4398;BME280;2213;49.720;7.296;2022-07-23T04:30:56;98169.94;;;20.30;100.00
4398;BME280;2213;49.720;7.296;2022-07-23T04:33:27;98182.66;;;20.28;100.00
4398;BME280;2213;49.720;7.296;2022-07-23T04:35:56;98179.34;;;20.21;100.00
4398;BME280;2213;49.720;7.296;2022-07-23T04:38:28;98182.00;;;20.21;100.00
4398;BME280;2213;49.720;7.296;2022-07-23T04:40:58;98189.66;;;20.18;100.00
4398;BME280;2213;49.720;7.296;2022-07-23T04:43:28;98195.44;;;20.15;100.00
4398;BME280;2213;49.720;7.296;2022-07-23T04:45:59;98209.00;;;20.13;100.00
4398;BME280;2213;49.720;7.296;2022-07-23T04:48:30;98205.75;;;20.11;100.00
4398;BME280;2213;49.720;7.296;2022-07-23T04:51:02;98205.75;;;20.11;100.00
4398;BME280;2213;49.720;7.296;2022-07-23T04:53:36;98209.94;;;20.07;100.00
4398;BME280;2213;49.720;7.296;2022-07-23T04:56:08;98212.59;;;20.07;100.00
4398;BME280;2213;49.720;7.296;2022-07-23T04:58:37;98221.06;;;20.04;100.00
4398;BME280;2213;49.720;7.296;2022-07-23T05:01:07;98216.78;;;20.03;100.00
4398;BME280;2213;49.720;7.296;2022-07-23T05:03:39;98220.25;;;20.03;100.00
4398;BME280;2213;49.720;7.296;2022-07-23T05:06:10;98211.47;;;20.03;100.00
4398;BME280;2213;49.720;7.296;2022-07-23T05:08:41;98213.66;;;20.06;100.00
4398;BME280;2213;49.720;7.296;2022-07-23T05:11:12;98211.56;;;20.08;100.00
4398;BME280;2213;49.720;7.296;2022-07-23T05:13:42;98215.75;;;20.04;100.00
4398;BME280;2213;49.720;7.296;2022-07-23T05:16:12;98213.66;;;20.06;100.00
4398;BME280;2213;49.720;7.296;2022-07-23T05:18:44;98215.25;;;20.07;100.00
4398;BME280;2213;49.720;7.296;2022-07-23T05:21:13;98219.03;;;20.11;100.00
4398;BME280;2213;49.720;7.296;2022-07-23T05:23:44;98223.53;;;20.10;100.00
4398;BME280;2213;49.720;7.296;2022-07-23T05:26:13;98223.31;;;20.12;100.00
4398;BME280;2213;49.720;7.296;2022-07-23T05:28:43;98218.53;;;20.14;100.00
4398;BME280;2213;49.720;7.296;2022-07-23T05:31:17;98215.41;;;20.17;100.00
4398;BME280;2213;49.720;7.296;2022-07-23T05:33:47;98213.88;;;20.21;100.00
4398;BME280;2213;49.720;7.296;2022-07-23T05:36:16;98216.38;;;20.28;100.00
4398;BME280;2213;49.720;7.296;2022-07-23T05:38:47;98205.53;;;20.29;100.00
4398;BME280;2213;49.720;7.296;2022-07-23T05:41:17;98207.59;;;20.27;100.00
4398;BME280;2213;49.720;7.296;2022-07-23T05:43:46;98216.03;;;20.24;100.00
4398;BME280;2213;49.720;7.296;2022-07-23T05:46:16;98215.81;;;20.26;100.00
4398;BME280;2213;49.720;7.296;2022-07-23T05:48:46;98218.44;;;20.26;100.00
4398;BME280;2213;49.720;7.296;2022-07-23T05:51:20;98219.25;;;20.26;100.00
4398;BME280;2213;49.720;7.296;2022-07-23T05:53:52;98222.25;;;20.30;100.00
4398;BME280;2213;49.720;7.296;2022-07-23T05:56:22;98231.34;;;20.34;100.00
4398;BME280;2213;49.720;7.296;2022-07-23T05:58:52;98233.53;;;20.37;100.00
4398;BME280;2213;49.720;7.296;2022-07-23T06:01:22;98231.97;;;20.41;100.00
4398;BME280;2213;49.720;7.296;2022-07-23T06:03:52;98237.03;;;20.42;100.00
4398;BME280;2213;49.720;7.296;2022-07-23T06:06:22;98246.69;;;20.48;100.00
4398;BME280;2213;49.720;7.296;2022-07-23T06:08:54;98241.94;;;20.50;100.00
4398;BME280;2213;49.720;7.296;2022-07-23T06:11:25;98248.91;;;20.56;100.00
4398;BME280;2213;49.720;7.296;2022-07-23T06:13:56;98245.78;;;20.59;100.00
4398;BME280;2213;49.720;7.296;2022-07-23T06:16:27;98247.13;;;20.62;100.00
4398;BME280;2213;49.720;7.296;2022-07-23T06:18:56;98242.13;;;20.66;100.00
4398;BME280;2213;49.720;7.296;2022-07-23T06:21:27;98251.22;;;20.70;100.00
4398;BME280;2213;49.720;7.296;2022-07-23T06:24:16;98248.31;;;20.71;100.00
4398;BME280;2213;49.720;7.296;2022-07-23T06:26:46;98244.91;;;20.76;100.00
4398;BME280;2213;49.720;7.296;2022-07-23T06:29:16;98247.09;;;20.79;100.00
4398;BME280;2213;49.720;7.296;2022-07-23T06:31:46;98246.81;;;20.80;100.00
4398;BME280;2213;49.720;7.296;2022-07-23T06:34:17;98251.66;;;20.83;100.00
4398;BME280;2213;49.720;7.296;2022-07-23T06:36:46;98253.81;;;20.86;100.00
4398;BME280;2213;49.720;7.296;2022-07-23T06:39:18;98268.97;;;20.86;100.00
4398;BME280;2213;49.720;7.296;2022-07-23T06:41:47;98261.78;;;20.86;100.00
4398;BME280;2213;49.720;7.296;2022-07-23T06:44:23;98271.94;;;20.89;100.00
4398;BME280;2213;49.720;7.296;2022-07-23T06:46:54;98271.13;;;20.89;100.00
4398;BME280;2213;49.720;7.296;2022-07-23T06:49:23;98266.94;;;20.93;100.00
4398;BME280;2213;49.720;7.296;2022-07-23T06:51:53;98276.00;;;20.97;100.00
4398;BME280;2213;49.720;7.296;2022-07-23T06:54:24;98278.75;;;21.02;100.00
4398;BME280;2213;49.720;7.296;2022-07-23T06:56:54;98276.06;;;21.02;100.00
4398;BME280;2213;49.720;7.296;2022-07-23T06:59:24;98271.81;;;21.01;100.00
4398;BME280;2213;49.720;7.296;2022-07-23T07:01:54;98280.91;;;21.05;100.00
4398;BME280;2213;49.720;7.296;2022-07-23T07:04:26;98278.06;;;21.12;100.00
4398;BME280;2213;49.720;7.296;2022-07-23T07:06:56;98283.47;;;21.17;100.00
4398;BME280;2213;49.720;7.296;2022-07-23T07:09:28;98280.63;;;21.23;100.00
4398;BME280;2213;49.720;7.296;2022-07-23T07:11:58;98278.75;;;21.24;100.00
4398;BME280;2213;49.720;7.296;2022-07-23T07:14:28;98286.25;;;21.27;100.00
4398;BME280;2213;49.720;7.296;2022-07-23T07:16:59;98288.63;;;21.28;100.00
4398;BME280;2213;49.720;7.296;2022-07-23T07:19:29;98289.50;;;21.34;100.00
4398;BME280;2213;49.720;7.296;2022-07-23T07:21:59;98287.69;;;21.39;100.00
4398;BME280;2213;49.720;7.296;2022-07-23T07:24:33;98293.31;;;21.43;100.00
4398;BME280;2213;49.720;7.296;2022-07-23T07:27:06;98289.09;;;21.47;100.00
4398;BME280;2213;49.720;7.296;2022-07-23T07:29:36;98293.72;;;21.56;100.00
4398;BME280;2213;49.720;7.296;2022-07-23T07:32:06;98300.97;;;21.61;100.00
4398;BME280;2213;49.720;7.296;2022-07-23T07:34:37;98301.28;;;21.65;100.00
4398;BME280;2213;49.720;7.296;2022-07-23T07:37:06;98306.63;;;21.70;100.00
4398;BME280;2213;49.720;7.296;2022-07-23T07:39:37;98304.25;;;21.73;100.00
4398;BME280;2213;49.720;7.296;2022-07-23T07:42:08;98291.53;;;21.80;100.00
4398;BME280;2213;49.720;7.296;2022-07-23T07:44:38;98305.97;;;21.84;100.00
4398;BME280;2213;49.720;7.296;2022-07-23T07:47:08;98302.31;;;21.90;100.00
4398;BME280;2213;49.720;7.296;2022-07-23T07:49:37;98304.22;;;21.95;100.00
4398;BME280;2213;49.720;7.296;2022-07-23T07:52:08;98308.50;;;21.96;100.00
4398;BME280;2213;49.720;7.296;2022-07-23T07:54:40;98301.56;;;21.95;100.00
4398;BME280;2213;49.720;7.296;2022-07-23T07:57:10;98312.50;;;21.98;100.00
4398;BME280;2213;49.720;7.296;2022-07-23T07:59:40;98302.16;;;22.02;100.00
4398;BME280;2213;49.720;7.296;2022-07-23T08:02:12;98301.66;;;22.05;100.00
4398;BME280;2213;49.720;7.296;2022-07-23T08:04:42;98305.41;;;22.09;100.00
4398;BME280;2213;49.720;7.296;2022-07-23T08:07:14;98306.47;;;22.08;100.00
4398;BME280;2213;49.720;7.296;2022-07-23T08:09:45;98307.28;;;22.08;99.01
4398;BME280;2213;49.720;7.296;2022-07-23T08:12:15;98308.88;;;22.10;98.08
4398;BME280;2213;49.720;7.296;2022-07-23T08:14:45;98312.91;;;22.12;96.80
4398;BME280;2213;49.720;7.296;2022-07-23T08:17:16;98300.63;;;22.11;96.32
4398;BME280;2213;49.720;7.296;2022-07-23T08:19:47;98311.88;;;22.18;96.73
4398;BME280;2213;49.720;7.296;2022-07-23T08:22:17;98308.72;;;22.21;97.40
4398;BME280;2213;49.720;7.296;2022-07-23T08:24:47;98317.78;;;22.25;97.40
4398;BME280;2213;49.720;7.296;2022-07-23T08:27:16;98310.88;;;22.29;97.33
4398;BME280;2213;49.720;7.296;2022-07-23T08:29:47;98322.13;;;22.36;97.95
4398;BME280;2213;49.720;7.296;2022-07-23T08:32:17;98318.97;;;22.39;97.40
4398;BME280;2213;49.720;7.296;2022-07-23T08:35:08;98320.06;;;22.43;96.22
4398;BME280;2213;49.720;7.296;2022-07-23T08:37:38;98320.63;;;22.50;94.96
4398;BME280;2213;49.720;7.296;2022-07-23T08:40:12;98318.03;;;22.55;95.60
4398;BME280;2213;49.720;7.296;2022-07-23T08:42:42;98317.22;;;22.60;94.02
4398;BME280;2213;49.720;7.296;2022-07-23T08:45:17;98324.22;;;22.66;94.08
4398;BME280;2213;49.720;7.296;2022-07-23T08:47:52;98310.94;;;22.71;92.93
4398;BME280;2213;49.720;7.296;2022-07-23T08:50:23;98308.84;;;22.78;92.94
4398;BME280;2213;49.720;7.296;2022-07-23T08:52:53;98312.88;;;22.86;92.85
4398;BME280;2213;49.720;7.296;2022-07-23T08:55:25;98312.34;;;22.89;91.42
4398;BME280;2213;49.720;7.296;2022-07-23T08:57:56;98310.22;;;22.91;88.68
4398;BME280;2213;49.720;7.296;2022-07-23T09:00:25;98316.66;;;22.95;88.79
4398;BME280;2213;49.720;7.296;2022-07-23T09:02:55;98318.53;;;22.99;87.86
4398;BME280;2213;49.720;7.296;2022-07-23T09:05:25;98310.28;;;23.01;86.18
4398;BME280;2213;49.720;7.296;2022-07-23T09:08:11;98310.28;;;23.01;84.83
4398;BME280;2213;49.720;7.296;2022-07-23T09:10:52;98311.34;;;23.05;83.77
4398;BME280;2213;49.720;7.296;2022-07-23T09:13:41;98326.06;;;23.13;81.73
4398;BME280;2213;49.720;7.296;2022-07-23T09:16:15;98323.44;;;23.18;80.70
4398;BME280;2213;49.720;7.296;2022-07-23T09:18:50;98312.50;;;23.24;81.22
4398;BME280;2213;49.720;7.296;2022-07-23T09:21:23;98321.09;;;23.31;81.11
4398;BME280;2213;49.720;7.296;2022-07-23T09:23:57;98313.59;;;23.33;81.18
4398;BME280;2213;49.720;7.296;2022-07-23T09:26:34;98311.50;;;23.35;83.21
4398;BME280;2213;49.720;7.296;2022-07-23T09:29:10;98310.47;;;23.41;81.51
4398;BME280;2213;49.720;7.296;2022-07-23T09:31:49;98306.19;;;23.45;81.65
4398;BME280;2213;49.720;7.296;2022-07-23T09:34:21;98316.06;;;23.50;81.74
4398;BME280;2213;49.720;7.296;2022-07-23T09:36:54;98312.63;;;23.49;79.89
4398;BME280;2213;49.720;7.296;2022-07-23T09:39:32;98308.88;;;23.50;79.92
4398;BME280;2213;49.720;7.296;2022-07-23T09:42:16;98306.75;;;23.52;80.17
4398;BME280;2213;49.720;7.296;2022-07-23T09:44:48;98306.47;;;23.54;79.80
4398;BME280;2213;49.720;7.296;2022-07-23T09:47:20;98298.75;;;23.63;80.63
4398;BME280;2213;49.720;7.296;2022-07-23T09:50:02;98301.16;;;23.69;80.18
4398;BME280;2213;49.720;7.296;2022-07-23T09:52:36;98303.31;;;23.72;77.79
4398;BME280;2213;49.720;7.296;2022-07-23T09:55:07;98312.13;;;23.73;78.15
4398;BME280;2213;49.720;7.296;2022-07-23T09:57:41;98302.53;;;23.77;78.48
4398;BME280;2213;49.720;7.296;2022-07-23T10:00:14;98312.13;;;23.83;78.96
4398;BME280;2213;49.720;7.296;2022-07-23T10:02:47;98303.59;;;23.86;78.92
4398;BME280;2213;49.720;7.296;2022-07-23T10:05:16;98312.16;;;23.88;79.44
4398;BME280;2213;49.720;7.296;2022-07-23T10:07:46;98316.41;;;23.89;78.71
4398;BME280;2213;49.720;7.296;2022-07-23T10:10:22;98326.84;;;23.90;77.71
4398;BME280;2213;49.720;7.296;2022-07-23T10:12:56;98320.16;;;23.88;75.36
4398;BME280;2213;49.720;7.296;2022-07-23T10:15:41;98318.03;;;23.90;75.83
4398;BME280;2213;49.720;7.296;2022-07-23T10:18:12;98313.22;;;23.97;76.17
4398;BME280;2213;49.720;7.296;2022-07-23T10:20:42;98316.97;;;24.01;74.93
4398;BME280;2213;49.720;7.296;2022-07-23T10:23:22;98315.59;;;23.98;73.94
4398;BME280;2213;49.720;7.296;2022-07-23T10:26:05;98319.09;;;24.04;74.86
4398;BME280;2213;49.720;7.296;2022-07-23T10:29:31;98320.19;;;24.08;72.51
4398;BME280;2213;49.720;7.296;2022-07-23T10:32:20;98316.97;;;24.11;72.96
4398;BME280;2213;49.720;7.296;2022-07-23T10:35:06;98313.78;;;24.14;73.20
4398;BME280;2213;49.720;7.296;2022-07-23T10:37:42;98309.53;;;24.18;72.77
4398;BME280;2213;49.720;7.296;2022-07-23T10:40:17;98311.09;;;24.24;71.13
4398;BME280;2213;49.720;7.296;2022-07-23T10:42:52;98311.13;;;24.29;70.55
4398;BME280;2213;49.720;7.296;2022-07-23T10:45:27;98308.44;;;24.34;71.31
4398;BME280;2213;49.720;7.296;2022-07-23T10:48:14;98302.00;;;24.40;71.76
4398;BME280;2213;49.720;7.296;2022-07-23T10:51:08;98304.94;;;24.49;72.56
4398;BME280;2213;49.720;7.296;2022-07-23T10:53:56;98306.81;;;24.53;70.96
4398;BME280;2213;49.720;7.296;2022-07-23T10:57:04;98301.19;;;24.60;69.51
4398;BME280;2213;49.720;7.296;2022-07-23T11:00:15;98296.34;;;24.62;69.10
4398;BME280;2213;49.720;7.296;2022-07-23T11:02:49;98297.16;;;24.68;70.24
4398;BME280;2213;49.720;7.296;2022-07-23T11:05:21;98297.13;;;24.73;68.98
4398;BME280;2213;49.720;7.296;2022-07-23T11:08:18;98293.34;;;24.79;68.44
4398;BME280;2213;49.720;7.296;2022-07-23T11:10:52;98297.38;;;24.86;68.48
4398;BME280;2213;49.720;7.296;2022-07-23T11:13:37;98297.63;;;24.90;67.52
4398;BME280;2213;49.720;7.296;2022-07-23T11:16:22;98296.53;;;24.96;67.50
4398;BME280;2213;49.720;7.296;2022-07-23T11:19:07;98299.72;;;25.03;67.28
4398;BME280;2213;49.720;7.296;2022-07-23T11:21:52;98297.28;;;25.12;66.16
4398;BME280;2213;49.720;7.296;2022-07-23T11:24:23;98296.97;;;25.18;66.10
4398;BME280;2213;49.720;7.296;2022-07-23T11:27:02;98299.66;;;25.23;65.61
4398;BME280;2213;49.720;7.296;2022-07-23T11:29:46;98291.31;;;25.30;66.15
4398;BME280;2213;49.720;7.296;2022-07-23T11:32:37;98295.25;;;25.37;65.59
4398;BME280;2213;49.720;7.296;2022-07-23T11:35:39;98277.63;;;25.36;63.42
4398;BME280;2213;49.720;7.296;2022-07-23T11:38:17;98289.38;;;25.40;63.85
4398;BME280;2213;49.720;7.296;2022-07-23T11:40:54;98286.16;;;25.43;63.36
4398;BME280;2213;49.720;7.296;2022-07-23T11:43:26;98287.47;;;25.51;62.99
4398;BME280;2213;49.720;7.296;2022-07-23T11:45:59;98281.81;;;25.52;62.14
4398;BME280;2213;49.720;7.296;2022-07-23T11:48:30;98282.81;;;25.62;62.90
4398;BME280;2213;49.720;7.296;2022-07-23T11:51:10;98279.00;;;25.73;64.74
4398;BME280;2213;49.720;7.296;2022-07-23T11:53:40;98275.22;;;25.79;62.29
4398;BME280;2213;49.720;7.296;2022-07-23T11:56:11;98265.78;;;25.86;62.24
4398;BME280;2213;49.720;7.296;2022-07-23T11:58:55;98278.34;;;25.91;60.82
4398;BME280;2213;49.720;7.296;2022-07-23T12:01:28;98264.34;;;25.99;61.31
4398;BME280;2213;49.720;7.296;2022-07-23T12:04:01;98268.06;;;26.03;60.37
4398;BME280;2213;49.720;7.296;2022-07-23T12:06:41;98271.22;;;26.10;60.72
4398;BME280;2213;49.720;7.296;2022-07-23T12:09:11;98264.69;;;26.21;61.76
4398;BME280;2213;49.720;7.296;2022-07-23T12:11:58;98260.34;;;26.30;62.90
4398;BME280;2213;49.720;7.296;2022-07-23T12:14:27;98269.41;;;26.34;61.98
4398;BME280;2213;49.720;7.296;2022-07-23T12:17:12;98270.44;;;26.38;59.70
4398;BME280;2213;49.720;7.296;2022-07-23T12:19:42;98270.16;;;26.40;58.88
4398;BME280;2213;49.720;7.296;2022-07-23T12:22:15;98267.72;;;26.43;59.73
4398;BME280;2213;49.720;7.296;2022-07-23T12:24:56;98273.81;;;26.49;60.34
4398;BME280;2213;49.720;7.296;2022-07-23T12:27:27;98269.81;;;26.46;57.82
4398;BME280;2213;49.720;7.296;2022-07-23T12:29:57;98277.91;;;26.41;57.02
4398;BME280;2213;49.720;7.296;2022-07-23T12:32:28;98276.03;;;26.42;57.27
4398;BME280;2213;49.720;7.296;2022-07-23T12:35:07;98267.97;;;26.42;56.56
4398;BME280;2213;49.720;7.296;2022-07-23T12:37:40;98273.06;;;26.43;57.86
4398;BME280;2213;49.720;7.296;2022-07-23T12:40:25;98276.25;;;26.45;58.06
4398;BME280;2213;49.720;7.296;2022-07-23T12:42:58;98274.13;;;26.47;58.58
4398;BME280;2213;49.720;7.296;2022-07-23T12:45:42;98276.78;;;26.47;59.37
4398;BME280;2213;49.720;7.296;2022-07-23T12:48:24;98280.50;;;26.51;60.14
4398;BME280;2213;49.720;7.296;2022-07-23T12:50:57;98273.81;;;26.49;59.09
4398;BME280;2213;49.720;7.296;2022-07-23T12:53:31;98278.09;;;26.50;58.79
4398;BME280;2213;49.720;7.296;2022-07-23T12:56:08;98274.63;;;26.49;57.54
4398;BME280;2213;49.720;7.296;2022-07-23T12:58:46;98272.47;;;26.51;57.92
4398;BME280;2213;49.720;7.296;2022-07-23T13:01:38;98277.25;;;26.55;58.06
4398;BME280;2213;49.720;7.296;2022-07-23T13:04:10;98272.41;;;26.57;57.99
4398;BME280;2213;49.720;7.296;2022-07-23T13:06:44;98273.69;;;26.59;58.74
4398;BME280;2213;49.720;7.296;2022-07-23T13:09:19;98269.44;;;26.58;58.86
4398;BME280;2213;49.720;7.296;2022-07-23T13:11:51;98266.47;;;26.60;59.83
4398;BME280;2213;49.720;7.296;2022-07-23T13:14:24;98278.78;;;26.61;61.28
4398;BME280;2213;49.720;7.296;2022-07-23T13:16:54;98273.16;;;26.62;60.37
4398;BME280;2213;49.720;7.296;2022-07-23T13:19:25;98274.97;;;26.67;59.84
4398;BME280;2213;49.720;7.296;2022-07-23T13:21:57;98272.25;;;26.72;58.14
4398;BME280;2213;49.720;7.296;2022-07-23T13:24:32;98279.41;;;26.76;57.59
4398;BME280;2213;49.720;7.296;2022-07-23T13:27:04;98268.91;;;26.80;57.12
4398;BME280;2213;49.720;7.296;2022-07-23T13:29:38;98264.03;;;26.87;55.43
4398;BME280;2213;49.720;7.296;2022-07-23T13:32:08;98276.25;;;26.98;55.33
4398;BME280;2213;49.720;7.296;2022-07-23T13:34:40;98273.44;;;27.08;55.75
4398;BME280;2213;49.720;7.296;2022-07-23T13:37:10;98271.94;;;27.21;55.21
4398;BME280;2213;49.720;7.296;2022-07-23T13:39:42;98272.66;;;27.26;54.14
4398;BME280;2213;49.720;7.296;2022-07-23T13:42:13;98276.28;;;27.35;53.73
4398;BME280;2213;49.720;7.296;2022-07-23T13:44:42;98270.91;;;27.35;52.94
4398;BME280;2213;49.720;7.296;2022-07-23T13:47:12;98266.56;;;27.39;54.12